Time;durP1;ratioP1;P1;durP2;ratioP2;P2;SDS_P1;SDS_P2;PMS_P1;PMS_P2;Temp;Humidity;BMP_temperature;BMP_pressure;BME280_temperature;BME280_humidity;BME280_pressure;Samples;Min_cycle;Max_cycle;Signal;HPM_P1;HPM_P2
2022/12/07 00:00:45;;;;;;;;;;;;;;;5.78;64.55;95275.44;5052280;28;20021;-64
2022/12/07 00:03:10;;;;;;;;;;;;;;;5.98;64.31;95278.03;5052183;28;20009;-64
2022/12/07 00:05:35;;;;;;;;;;;;;;;6.36;62.93;95274.94;5052211;28;20010;-65
2022/12/07 00:08:01;;;;;;;;;;;;;;;6.51;62.80;95280.13;5051799;28;20497;-63
2022/12/07 00:10:26;;;;;;;;;;;;;;;6.29;63.59;95272.59;5051937;28;20009;-63
2022/12/07 00:12:51;;;;;;;;;;;;;;;6.45;62.48;95276.75;5034294;28;20024;-66
2022/12/07 00:15:16;;;;;;;;;;;;;;;5.99;64.10;95270.91;5051943;28;20072;-66
2022/12/07 00:17:42;;;;;;;;;;;;;;;6.47;63.03;95266.66;5052267;28;20009;-67
2022/12/07 00:20:07;;;;;;;;;;;;;;;6.76;61.86;95271.25;5051458;28;20016;-66
2022/12/07 00:22:32;;;;;;;;;;;;;;;6.73;61.96;95267.28;5051732;28;20455;-67
2022/12/07 00:24:58;;;;;;;;;;;;;;;6.51;62.65;95261.63;5051626;28;20013;-65
2022/12/07 00:27:23;;;;;;;;;;;;;;;6.31;62.83;95264.41;5051723;28;20014;-66
2022/12/07 00:29:49;;;;;;;;;;;;;;;6.58;62.53;95251.53;5051102;28;20009;-65
2022/12/07 00:32:14;;;;;;;;;;;;;;;6.06;63.78;95260.84;5051264;28;20016;-66
2022/12/07 00:34:39;;;;;;;;;;;;;;;6.21;63.04;95263.41;5051131;28;20167;-66
2022/12/07 00:37:04;;;;;;;;;;;;;;;6.63;62.07;95254.13;5051262;28;20010;-65
2022/12/07 00:39:29;;;;;;;;;;;;;;;6.61;61.99;95258.13;5050952;28;20385;-66
2022/12/07 00:41:55;;;;;;;;;;;;;;;6.51;62.51;95251.06;5051383;28;20108;-66
2022/12/07 00:44:20;;;;;;;;;;;;;;;6.65;61.85;95252.00;5033169;28;20025;-65
2022/12/07 00:46:45;;;;;;;;;;;;;;;6.25;62.04;95256.50;5033281;28;20017;-64
2022/12/07 00:49:11;;;;;;;;;;;;;;;6.25;63.23;95263.66;5050860;28;20013;-65
2022/12/07 00:51:36;;;;;;;;;;;;;;;6.66;61.69;95263.38;5033174;28;20873;-64
2022/12/07 00:54:02;;;;;;;;;;;;;;;7.10;61.16;95259.84;5033107;28;20024;-64
2022/12/07 00:56:28;;;;;;;;;;;;;;;6.75;61.10;95261.72;5032740;28;20043;-66
2022/12/07 00:58:58;;;;;;;;;;;;;;;6.70;61.34;95265.19;5050457;28;20055;-67
2022/12/07 01:01:24;;;;;;;;;;;;;;;6.98;60.87;95257.56;5050643;28;20063;-66
2022/12/07 01:03:49;;;;;;;;;;;;;;;6.81;61.09;95260.63;5050469;28;20013;-66
2022/12/07 01:06:16;;;;;;;;;;;;;;;6.28;63.10;95262.31;5050581;28;20556;-65
2022/12/07 01:08:41;;;;;;;;;;;;;;;6.94;61.51;95253.91;5049970;28;20013;-66
2022/12/07 01:11:07;;;;;;;;;;;;;;;6.60;61.41;95259.19;5050568;28;20016;-65
2022/12/07 01:13:34;;;;;;;;;;;;;;;6.48;62.35;95256.88;5032608;28;20070;-66
2022/12/07 01:16:00;;;;;;;;;;;;;;;6.10;63.63;95256.59;5050424;28;20021;-65
2022/12/07 01:18:31;;;;;;;;;;;;;;;6.15;63.88;95253.13;5049960;28;20660;-66
2022/12/07 01:20:58;;;;;;;;;;;;;;;5.81;64.90;95260.91;5050438;28;20109;-65
2022/12/07 01:23:23;;;;;;;;;;;;;;;6.10;64.07;95264.50;5050374;28;20042;-66
2022/12/07 01:25:53;;;;;;;;;;;;;;;6.19;63.86;95260.25;5050295;28;20013;-65
2022/12/07 01:28:19;;;;;;;;;;;;;;;6.36;63.08;95261.72;5049721;28;20013;-66
2022/12/07 01:30:44;;;;;;;;;;;;;;;6.97;62.08;95258.66;5050414;28;20155;-66
2022/12/07 01:33:09;;;;;;;;;;;;;;;6.61;61.61;95260.78;5032334;28;20013;-66
2022/12/07 01:35:34;;;;;;;;;;;;;;;6.85;61.67;95266.91;5050064;28;20025;-66
2022/12/07 01:38:00;;;;;;;;;;;;;;;6.24;62.14;95267.31;5032099;28;20081;-64
2022/12/07 01:40:25;;;;;;;;;;;;;;;6.71;61.87;95261.50;5050241;28;20005;-66
2022/12/07 01:42:50;;;;;;;;;;;;;;;6.98;61.17;95257.56;5050029;28;20014;-65
2022/12/07 01:45:18;;;;;;;;;;;;;;;7.07;60.82;95263.84;5050144;28;20017;-66
2022/12/07 01:47:45;;;;;;;;;;;;;;;7.31;60.82;95255.94;5050049;28;20010;-66
2022/12/07 01:50:10;;;;;;;;;;;;;;;7.25;60.41;95251.75;5049455;28;20067;-66
2022/12/07 01:52:37;;;;;;;;;;;;;;;7.42;60.07;95252.13;5050010;28;20018;-66
2022/12/07 01:55:10;;;;;;;;;;;;;;;7.23;59.57;95238.81;5049877;28;20021;-66
2022/12/07 01:57:38;;;;;;;;;;;;;;;6.51;62.00;95251.84;5050113;28;20020;-66
2022/12/07 02:00:05;;;;;;;;;;;;;;;6.72;61.83;95251.69;5031643;28;20026;-66
2022/12/07 02:02:32;;;;;;;;;;;;;;;6.75;61.24;95246.63;5049408;28;20470;-66
2022/12/07 02:04:59;;;;;;;;;;;;;;;7.03;61.43;95249.59;5049840;28;20495;-66
2022/12/07 02:07:25;;;;;;;;;;;;;;;6.95;61.03;95244.91;5049885;28;20071;-66
2022/12/07 02:09:50;;;;;;;;;;;;;;;6.65;61.36;95248.56;5049208;28;20116;-66
2022/12/07 02:12:16;;;;;;;;;;;;;;;5.95;64.77;95252.19;5049655;28;20009;-66
2022/12/07 02:14:41;;;;;;;;;;;;;;;6.22;64.22;95246.47;5031892;28;20053;-65
2022/12/07 02:17:25;;;;;;;;;;;;;;;6.47;63.37;95237.59;5049733;28;20485;-66
2022/12/07 02:20:13;;;;;;;;;;;;;;;6.12;64.13;95241.25;5049220;28;20012;-65
2022/12/07 02:22:59;;;;;;;;;;;;;;;6.96;62.25;95241.19;5053541;28;20010;-66
2022/12/07 02:25:30;;;;;;;;;;;;;;;7.38;61.21;95235.25;5053105;28;20461;-66
2022/12/07 02:28:06;;;;;;;;;;;;;;;6.82;61.95;95240.25;5053360;28;20012;-65
2022/12/07 02:30:34;;;;;;;;;;;;;;;6.52;62.32;95236.78;5053526;28;20112;-66
2022/12/07 02:33:02;;;;;;;;;;;;;;;6.17;63.92;95243.09;5053534;28;20477;-65
2022/12/07 02:35:39;;;;;;;;;;;;;;;6.72;63.52;95241.13;5053628;28;20018;-66
2022/12/07 02:38:07;;;;;;;;;;;;;;;7.06;61.73;95230.50;5053077;28;20488;-66
2022/12/07 02:40:47;;;;;;;;;;;;;;;7.26;61.37;95229.53;5035208;28;20075;-66
2022/12/07 02:43:19;;;;;;;;;;;;;;;7.34;60.75;95223.63;5035541;28;20100;-66
2022/12/07 02:45:45;;;;;;;;;;;;;;;7.23;60.44;95230.09;5053456;28;20017;-66
2022/12/07 02:48:12;;;;;;;;;;;;;;;7.12;61.45;95233.91;5052757;28;20013;-66
2022/12/07 02:50:37;;;;;;;;;;;;;;;7.46;60.89;95226.66;5053214;28;20014;-66
2022/12/07 02:53:02;;;;;;;;;;;;;;;7.75;60.16;95225.81;5053247;28;20366;-66
2022/12/07 02:55:31;;;;;;;;;;;;;;;7.87;59.59;95230.69;5053110;28;20018;-65
2022/12/07 02:58:05;;;;;;;;;;;;;;;7.90;59.12;95227.50;5053022;28;20009;-66
2022/12/07 03:00:35;;;;;;;;;;;;;;;7.17;59.60;95228.59;5052879;28;20017;-66
2022/12/07 03:03:03;;;;;;;;;;;;;;;6.51;62.12;95225.44;5052995;28;20014;-66
2022/12/07 03:05:40;;;;;;;;;;;;;;;6.12;64.94;95230.69;5053238;28;20123;-65
2022/12/07 03:08:13;;;;;;;;;;;;;;;6.73;62.99;95229.47;5052879;28;20473;-66
2022/12/07 03:10:44;;;;;;;;;;;;;;;7.26;61.74;95227.66;5052979;28;20055;-65
2022/12/07 03:13:17;;;;;;;;;;;;;;;7.34;60.78;95222.84;5053393;28;20017;-66
2022/12/07 03:15:48;;;;;;;;;;;;;;;6.86;61.47;95220.94;5052889;28;20024;-66
2022/12/07 03:18:16;;;;;;;;;;;;;;;7.17;60.51;95224.06;5052273;28;20016;-66
2022/12/07 03:20:43;;;;;;;;;;;;;;;6.72;60.99;95226.06;5052704;28;20067;-66
2022/12/07 03:23:09;;;;;;;;;;;;;;;6.73;61.65;95222.34;5052710;28;20009;-66
2022/12/07 03:25:39;;;;;;;;;;;;;;;6.69;61.81;95221.31;5052730;28;20496;-66
2022/12/07 03:28:05;;;;;;;;;;;;;;;6.07;63.56;95232.56;5052225;28;20607;-66
2022/12/07 03:30:36;;;;;;;;;;;;;;;5.87;64.81;95236.06;5034464;28;20112;-66
2022/12/07 03:33:11;;;;;;;;;;;;;;;6.09;64.01;95230.44;5052432;28;20013;-65
2022/12/07 03:35:41;;;;;;;;;;;;;;;5.92;65.25;95228.94;5052722;28;20491;-66
2022/12/07 03:38:21;;;;;;;;;;;;;;;5.62;65.77;95227.19;5034044;28;20513;-65
2022/12/07 03:40:46;;;;;;;;;;;;;;;5.31;67.08;95221.25;5052314;28;20005;-65
2022/12/07 03:43:12;;;;;;;;;;;;;;;5.61;66.36;95230.13;5052152;28;20016;-65
2022/12/07 03:45:42;;;;;;;;;;;;;;;5.60;66.76;95220.63;5052244;28;20006;-66
2022/12/07 03:48:15;;;;;;;;;;;;;;;6.05;64.87;95224.16;5051840;28;20010;-66
2022/12/07 03:50:40;;;;;;;;;;;;;;;5.64;66.18;95216.41;5051993;28;20006;-65
2022/12/07 03:53:12;;;;;;;;;;;;;;;5.79;65.40;95213.69;5051907;28;20016;-66
2022/12/07 03:55:41;;;;;;;;;;;;;;;6.18;64.93;95226.94;5050962;28;20018;-66
2022/12/07 03:58:12;;;;;;;;;;;;;;;6.24;64.52;95215.31;5051264;28;20010;-65
2022/12/07 04:00:41;;;;;;;;;;;;;;;6.64;63.94;95213.41;5051720;28;20017;-66
2022/12/07 04:03:06;;;;;;;;;;;;;;;6.59;63.31;95210.03;5052167;28;20020;-65
2022/12/07 04:05:32;;;;;;;;;;;;;;;6.99;62.59;95214.97;5051768;28;20010;-65
2022/12/07 04:07:57;;;;;;;;;;;;;;;6.87;61.77;95213.78;5051618;28;20020;-65
2022/12/07 04:10:22;;;;;;;;;;;;;;;7.14;62.00;95207.97;5051300;28;20010;-66
2022/12/07 04:12:47;;;;;;;;;;;;;;;6.28;63.94;95201.53;5051604;28;20092;-65
2022/12/07 04:15:12;;;;;;;;;;;;;;;6.67;63.60;95210.25;5051624;28;20018;-65
2022/12/07 04:17:38;;;;;;;;;;;;;;;5.76;64.87;95214.22;5033826;28;20036;-65
2022/12/07 04:20:04;;;;;;;;;;;;;;;5.78;65.84;95227.13;5033353;28;20008;-65
2022/12/07 04:22:29;;;;;;;;;;;;;;;5.34;67.37;95212.00;5051201;28;20013;-66
2022/12/07 04:24:54;;;;;;;;;;;;;;;5.89;66.80;95218.13;5033554;28;20017;-65
2022/12/07 04:27:19;;;;;;;;;;;;;;;5.10;69.23;95225.78;5033434;28;20052;-65
2022/12/07 04:29:44;;;;;;;;;;;;;;;5.58;68.24;95226.19;5051110;28;20112;-65
2022/12/07 04:32:10;;;;;;;;;;;;;;;5.16;68.83;95226.53;5033321;28;20021;-65
2022/12/07 04:34:36;;;;;;;;;;;;;;;5.85;67.89;95220.50;5051178;28;20412;-65
2022/12/07 04:37:01;;;;;;;;;;;;;;;6.03;66.52;95224.41;5051116;28;20096;-65
2022/12/07 04:39:27;;;;;;;;;;;;;;;5.50;66.98;95218.81;5050852;28;20108;-65
2022/12/07 04:41:53;;;;;;;;;;;;;;;5.12;68.60;95214.97;5051148;28;20449;-65
2022/12/07 04:44:19;;;;;;;;;;;;;;;5.23;68.38;95219.16;5032555;28;20101;-65
2022/12/07 04:46:45;;;;;;;;;;;;;;;5.12;69.78;95223.69;5051140;28;20021;-66
2022/12/07 04:49:11;;;;;;;;;;;;;;;5.34;68.18;95212.00;5050597;28;20009;-65
2022/12/07 04:51:36;;;;;;;;;;;;;;;4.84;69.36;95213.69;5051188;28;20013;-65
2022/12/07 04:54:01;;;;;;;;;;;;;;;4.60;71.37;95221.34;5033055;28;20017;-65
2022/12/07 04:56:26;;;;;;;;;;;;;;;4.83;71.03;95215.53;5032949;28;20021;-65
2022/12/07 04:58:53;;;;;;;;;;;;;;;4.93;70.27;95222.66;5050491;28;20013;-65
2022/12/07 05:01:18;;;;;;;;;;;;;;;4.58;72.03;95221.59;5050606;28;20158;-65
2022/12/07 05:03:43;;;;;;;;;;;;;;;4.88;71.01;95212.91;5050932;28;20104;-65
2022/12/07 05:06:09;;;;;;;;;;;;;;;5.43;68.94;95219.09;5050686;28;20009;-65
2022/12/07 05:08:35;;;;;;;;;;;;;;;5.21;69.32;95216.78;5050488;28;20010;-66
2022/12/07 05:11:00;;;;;;;;;;;;;;;4.54;71.34;95230.28;5050782;28;20021;-65
2022/12/07 05:13:26;;;;;;;;;;;;;;;4.74;71.53;95226.88;5050780;28;20009;-65
2022/12/07 05:15:51;;;;;;;;;;;;;;;4.20;73.06;95237.88;5050476;28;20070;-65
2022/12/07 05:18:17;;;;;;;;;;;;;;;4.13;72.97;95231.03;5050167;28;20010;-65
2022/12/07 05:20:42;;;;;;;;;;;;;;;4.81;71.86;95220.28;5050408;28;20056;-65
2022/12/07 05:23:07;;;;;;;;;;;;;;;4.74;70.75;95221.59;5050417;28;20597;-65
2022/12/07 05:25:33;;;;;;;;;;;;;;;4.98;70.32;95220.00;5050449;28;20059;-65
2022/12/07 05:27:58;;;;;;;;;;;;;;;4.41;71.58;95226.34;5050087;28;20013;-66
2022/12/07 05:30:24;;;;;;;;;;;;;;;5.07;70.49;95221.03;5049983;28;20009;-65
2022/12/07 05:32:49;;;;;;;;;;;;;;;4.59;71.51;95225.03;5050324;28;20021;-65
2022/12/07 05:35:14;;;;;;;;;;;;;;;4.71;71.16;95230.84;5032500;28;20482;-64
2022/12/07 05:37:39;;;;;;;;;;;;;;;4.72;71.32;95227.16;5032313;28;20451;-65
2022/12/07 05:40:05;;;;;;;;;;;;;;;4.98;70.83;95221.84;5050049;28;20005;-65
2022/12/07 05:42:30;;;;;;;;;;;;;;;5.16;69.67;95222.06;5049762;28;20014;-65
2022/12/07 05:44:55;;;;;;;;;;;;;;;4.97;70.09;95222.91;5032561;28;20501;-65
2022/12/07 05:47:21;;;;;;;;;;;;;;;5.37;68.98;95227.28;5050077;28;20750;-65
2022/12/07 05:49:46;;;;;;;;;;;;;;;5.08;68.98;95220.00;5049605;28;20109;-65
2022/12/07 05:52:11;;;;;;;;;;;;;;;4.78;70.53;95226.09;5049740;28;20033;-64
2022/12/07 05:54:37;;;;;;;;;;;;;;;5.02;70.42;95218.41;5032065;28;20026;-65
2022/12/07 05:57:03;;;;;;;;;;;;;;;5.54;68.55;95221.72;5049442;28;20010;-66
2022/12/07 05:59:28;;;;;;;;;;;;;;;4.88;69.33;95226.06;5031532;28;20522;-65
2022/12/07 06:02:05;;;;;;;;;;;;;;;4.47;71.07;95227.16;5049830;28;20071;-66
2022/12/07 06:04:31;;;;;;;;;;;;;;;4.22;71.81;95233.16;5049598;28;20067;-65
2022/12/07 06:06:57;;;;;;;;;;;;;;;4.30;71.78;95235.28;5049825;28;20075;-65
2022/12/07 06:09:23;;;;;;;;;;;;;;;5.05;70.17;95225.00;5049163;28;20385;-66
2022/12/07 06:14:32;;;;;;;;;;;;;;;5.69;67.59;95233.00;5049920;28;20040;-66
2022/12/07 06:16:57;;;;;;;;;;;;;;;6.07;66.80;95225.44;5049884;28;20549;-65
2022/12/07 06:19:23;;;;;;;;;;;;;;;5.93;66.97;95227.09;5049645;28;20018;-65
2022/12/07 06:21:48;;;;;;;;;;;;;;;5.47;67.58;95237.81;5049743;28;20063;-65
2022/12/07 06:24:15;;;;;;;;;;;;;;;4.87;69.95;95239.53;5049996;28;20014;-65
2022/12/07 06:26:40;;;;;;;;;;;;;;;4.91;69.66;95240.56;5049842;28;20017;-65
2022/12/07 06:29:06;;;;;;;;;;;;;;;5.28;68.21;95239.47;5049745;28;20495;-66
2022/12/07 06:31:34;;;;;;;;;;;;;;;4.91;68.98;95245.81;5049697;28;20013;-65
2022/12/07 06:34:01;;;;;;;;;;;;;;;5.23;68.78;95235.00;5049692;28;20013;-65
2022/12/07 06:36:26;;;;;;;;;;;;;;;5.25;68.05;95234.72;5049486;28;20040;-65
2022/12/07 06:38:51;;;;;;;;;;;;;;;5.59;68.29;95245.44;5049469;28;20488;-65
2022/12/07 06:41:17;;;;;;;;;;;;;;;6.15;66.56;95245.22;5049850;28;20096;-65
2022/12/07 06:43:42;;;;;;;;;;;;;;;6.29;65.66;95245.38;5049664;28;20009;-65
2022/12/07 06:46:07;;;;;;;;;;;;;;;6.48;64.51;95233.88;5049739;28;20462;-65
2022/12/07 06:48:33;;;;;;;;;;;;;;;6.68;64.38;95240.88;5049189;28;20024;-65
2022/12/07 06:50:58;;;;;;;;;;;;;;;6.83;63.30;95247.13;5049652;28;20016;-65
2022/12/07 06:53:23;;;;;;;;;;;;;;;6.81;62.74;95244.75;5049619;28;20083;-65
2022/12/07 06:55:48;;;;;;;;;;;;;;;6.97;63.36;95240.13;5049270;28;20024;-64
2022/12/07 06:58:13;;;;;;;;;;;;;;;6.77;62.04;95239.22;5048866;28;20019;-64
2022/12/07 07:00:39;;;;;;;;;;;;;;;6.54;62.85;95224.06;5049448;28;20057;-67
2022/12/07 07:03:07;;;;;;;;;;;;;;;6.45;63.59;95252.16;5046930;28;20068;-64
2022/12/07 07:05:44;;;;;;;;;;;;;;;6.22;63.71;95248.34;5025096;28;20063;-65
2022/12/07 07:08:10;;;;;;;;;;;;;;;6.21;64.23;95252.84;5051658;28;20096;-64
2022/12/07 07:10:36;;;;;;;;;;;;;;;5.52;66.33;95250.97;5033908;28;20557;-64
2022/12/07 07:13:01;;;;;;;;;;;;;;;6.17;65.16;95251.00;5057897;28;20017;-66
2022/12/07 07:15:26;;;;;;;;;;;;;;;5.70;65.58;95253.03;5035159;28;20075;-66
2022/12/07 07:17:52;;;;;;;;;;;;;;;5.24;66.69;95255.03;5032603;28;20018;-67
2022/12/07 07:20:17;;;;;;;;;;;;;;;5.24;66.75;95260.28;5035160;28;20020;-65
2022/12/07 07:22:42;;;;;;;;;;;;;;;5.36;67.38;95257.34;5033073;28;20100;-65
2022/12/07 07:25:07;;;;;;;;;;;;;;;5.38;66.29;95247.34;5031538;28;20021;-65
2022/12/07 07:27:33;;;;;;;;;;;;;;;5.65;65.19;95253.06;5036574;28;20060;-67
2022/12/07 07:29:58;;;;;;;;;;;;;;;5.83;64.56;95256.16;5054016;28;20065;-69
2022/12/07 07:32:23;;;;;;;;;;;;;;;5.83;65.30;95256.94;5032200;28;20461;-67
2022/12/07 07:34:48;;;;;;;;;;;;;;;6.46;65.01;95259.81;5043549;28;20025;-66
2022/12/07 07:37:13;;;;;;;;;;;;;;;6.72;63.63;95260.41;5040563;28;20381;-65
2022/12/07 07:39:39;;;;;;;;;;;;;;;7.07;61.87;95266.50;5051226;28;20108;-67
2022/12/07 07:42:04;;;;;;;;;;;;;;;6.54;61.56;95265.56;5031035;28;20053;-67
2022/12/07 07:44:29;;;;;;;;;;;;;;;6.51;63.19;95261.63;5033808;28;20022;-67
2022/12/07 07:46:54;;;;;;;;;;;;;;;6.84;61.28;95264.56;5033894;28;20461;-67
2022/12/07 07:49:20;;;;;;;;;;;;;;;7.22;61.17;95265.56;5050545;28;20124;-67
2022/12/07 07:51:45;;;;;;;;;;;;;;;7.40;59.96;95272.78;5031700;28;20018;-66
2022/12/07 07:54:10;;;;;;;;;;;;;;;7.70;60.18;95263.72;5052051;28;20061;-66
2022/12/07 07:56:36;;;;;;;;;;;;;;;7.91;59.56;95263.50;5051258;28;20029;-68
2022/12/07 07:59:01;;;;;;;;;;;;;;;8.11;59.30;95260.59;5057550;28;20021;-68
2022/12/07 08:01:26;;;;;;;;;;;;;;;8.05;58.20;95267.03;5032600;28;20028;-66
2022/12/07 08:03:51;;;;;;;;;;;;;;;7.68;58.60;95268.53;5051416;28;20013;-68
2022/12/07 08:06:16;;;;;;;;;;;;;;;7.57;58.13;95274.97;5033239;28;20018;-67
2022/12/07 08:08:42;;;;;;;;;;;;;;;7.96;58.43;95271.38;5033903;28;20020;-66
2022/12/07 08:11:08;;;;;;;;;;;;;;;8.21;58.44;95271.06;5052570;28;20016;-69
2022/12/07 08:13:33;;;;;;;;;;;;;;;7.55;57.69;95173.91;5032453;28;20075;-68
2022/12/07 08:16:02;;;;;;;;;;;;;;;8.48;57.63;95267.00;5032918;28;20025;-68
2022/12/07 08:18:27;;;;;;;;;;;;;;;8.38;56.95;95270.59;5030509;28;20013;-64
2022/12/07 08:20:58;;;;;;;;;;;;;;;8.40;56.92;95263.16;5049871;28;20509;-66
2022/12/07 08:23:23;;;;;;;;;;;;;;;8.50;56.77;95260.38;5051211;28;20158;-65
2022/12/07 08:25:48;;;;;;;;;;;;;;;8.47;56.76;95268.88;5031736;28;20017;-65
2022/12/07 08:28:13;;;;;;;;;;;;;;;8.47;56.39;95268.09;5034936;28;20074;-66
2022/12/07 08:30:39;;;;;;;;;;;;;;;8.28;56.87;95268.06;5052214;28;20017;-69
2022/12/07 08:33:04;;;;;;;;;;;;;;;8.45;56.60;95280.88;5051620;28;20381;-68
2022/12/07 08:35:29;;;;;;;;;;;;;;;8.68;56.42;95268.59;5048843;28;20029;-68
2022/12/07 08:37:54;;;;;;;;;;;;;;;8.83;56.47;95278.97;5030790;28;20066;-68
2022/12/07 08:40:20;;;;;;;;;;;;;;;8.64;55.66;95267.59;5032513;28;20374;-67
2022/12/07 08:42:49;;;;;;;;;;;;;;;8.56;56.23;95271.69;5043083;28;20182;-66
2022/12/07 08:45:15;;;;;;;;;;;;;;;8.66;55.80;95276.06;5028565;28;20369;-66
2022/12/07 08:47:42;;;;;;;;;;;;;;;8.76;55.39;95266.06;5031224;28;20013;-66
2022/12/07 08:50:09;;;;;;;;;;;;;;;8.85;55.23;95263.53;5047965;28;20373;-68
2022/12/07 08:52:35;;;;;;;;;;;;;;;8.14;55.35;95262.69;5048188;28;20018;-67
2022/12/07 08:55:01;;;;;;;;;;;;;;;7.85;57.25;95256.69;5051239;28;20631;-67
2022/12/07 08:57:27;;;;;;;;;;;;;;;8.44;56.46;95268.66;5043213;28;20115;-67
2022/12/07 08:59:53;;;;;;;;;;;;;;;8.65;56.01;95274.44;5030951;28;20067;-67
2022/12/07 09:02:18;;;;;;;;;;;;;;;8.88;55.54;95270.13;5029886;28;20452;-66
2022/12/07 09:04:44;;;;;;;;;;;;;;;9.14;55.15;95267.88;5042429;28;20014;-67
2022/12/07 09:07:09;;;;;;;;;;;;;;;9.08;54.34;95267.16;5031274;28;20013;-66
2022/12/07 09:09:34;;;;;;;;;;;;;;;9.31;54.31;95271.53;5049585;28;20416;-67
2022/12/07 09:11:59;;;;;;;;;;;;;;;9.52;53.89;95273.81;5046170;28;20486;-69
2022/12/07 09:14:25;;;;;;;;;;;;;;;9.77;53.32;95273.34;5026504;28;20075;-68
2022/12/07 09:16:50;;;;;;;;;;;;;;;9.97;52.66;95255.44;5049764;28;20075;-66
2022/12/07 09:19:15;;;;;;;;;;;;;;;9.98;51.88;95263.13;5033742;28;20013;-68
2022/12/07 09:21:40;;;;;;;;;;;;;;;9.91;51.51;95257.41;5045197;28;20017;-68
2022/12/07 09:24:07;;;;;;;;;;;;;;;9.53;51.08;95251.53;5048559;28;20016;-68
2022/12/07 09:26:33;;;;;;;;;;;;;;;9.49;52.25;95251.31;5023345;28;20108;-68
2022/12/07 09:28:58;;;;;;;;;;;;;;;9.28;52.34;95266.03;5025048;28;20109;-68
2022/12/07 09:31:23;;;;;;;;;;;;;;;9.25;52.31;95270.03;5034105;28;20104;-65
2022/12/07 09:33:53;;;;;;;;;;;;;;;8.29;55.00;95275.75;5039459;28;20551;-67
2022/12/07 09:36:18;;;;;;;;;;;;;;;8.63;54.62;95271.31;5048257;28;21409;-66
2022/12/07 09:38:43;;;;;;;;;;;;;;;9.21;53.94;95255.78;5039229;28;20545;-66
2022/12/07 09:41:08;;;;;;;;;;;;;;;9.67;52.83;95248.84;5032882;28;20013;-67
2022/12/07 09:43:35;;;;;;;;;;;;;;;9.92;52.07;95248.34;5036883;28;20025;-68
2022/12/07 09:46:00;;;;;;;;;;;;;;;9.88;51.44;95252.72;5031023;28;20014;-68
2022/12/07 09:48:36;;;;;;;;;;;;;;;9.78;51.65;95260.88;5045115;28;20492;-66
2022/12/07 09:51:03;;;;;;;;;;;;;;;8.16;54.75;95263.19;5049614;28;20017;-69
2022/12/07 09:53:28;;;;;;;;;;;;;;;8.83;53.98;95257.75;5049253;28;20359;-67
2022/12/07 09:55:53;;;;;;;;;;;;;;;9.37;53.36;95254.44;5032136;28;20033;-67
2022/12/07 09:58:24;;;;;;;;;;;;;;;9.69;52.42;95244.06;5021484;28;20021;-67
2022/12/07 10:00:53;;;;;;;;;;;;;;;9.65;52.10;95243.84;5030081;28;20504;-68
2022/12/07 10:03:18;;;;;;;;;;;;;;;9.71;52.55;95247.19;5030322;28;20014;-66
2022/12/07 10:05:48;;;;;;;;;;;;;;;9.74;50.88;95239.41;5012501;28;20021;-67
2022/12/07 10:08:15;;;;;;;;;;;;;;;9.06;51.42;95245.44;5045371;28;20023;-67
2022/12/07 10:10:41;;;;;;;;;;;;;;;8.53;53.09;95201.44;5032200;28;20067;-67
2022/12/07 10:13:18;;;;;;;;;;;;;;;7.88;54.75;95246.28;5031980;28;20021;-66
2022/12/07 10:15:45;;;;;;;;;;;;;;;7.14;56.11;95237.06;5049934;28;20013;-66
2022/12/07 10:18:25;;;;;;;;;;;;;;;6.78;57.52;95240.03;5031644;28;20014;-66
2022/12/07 10:20:59;;;;;;;;;;;;;;;7.53;55.85;95242.22;5049983;28;20010;-66
2022/12/07 10:23:24;;;;;;;;;;;;;;;8.42;54.10;95246.97;5049170;28;20039;-66
2022/12/07 10:25:54;;;;;;;;;;;;;;;8.04;54.19;95239.75;5049746;28;20529;-67
2022/12/07 10:28:19;;;;;;;;;;;;;;;9.23;51.49;95236.94;5031643;28;20433;-66
2022/12/07 10:30:53;;;;;;;;;;;;;;;7.97;53.81;95235.88;5049984;28;20097;-68
2022/12/07 10:33:30;;;;;;;;;;;;;;;9.27;51.65;95227.31;5049399;28;20021;-67
2022/12/07 10:35:56;;;;;;;;;;;;;;;9.53;49.64;95224.97;5031854;28;20516;-67
2022/12/07 10:38:21;;;;;;;;;;;;;;;9.19;50.35;95241.25;5030438;28;20024;-67
2022/12/07 10:40:46;;;;;;;;;;;;;;;10.04;49.73;95237.25;5049216;28;20009;-68
2022/12/07 10:43:12;;;;;;;;;;;;;;;9.84;47.98;95231.25;5052828;28;20024;-68
2022/12/07 10:46:10;;;;;;;;;;;;;;;10.62;48.72;95237.31;5053510;28;20043;-67
2022/12/07 10:48:35;;;;;;;;;;;;;;;9.65;47.70;95225.25;5048542;28;20064;-68
2022/12/07 10:51:10;;;;;;;;;;;;;;;8.45;49.78;95227.84;5041670;28;20021;-67
2022/12/07 10:53:48;;;;;;;;;;;;;;;9.22;48.97;95222.88;5034948;28;20013;-66
2022/12/07 10:56:29;;;;;;;;;;;;;;;9.64;48.01;95205.88;5053502;28;20013;-67
2022/12/07 10:58:54;;;;;;;;;;;;;;;8.52;49.03;95218.44;5035091;28;20071;-66
2022/12/07 11:01:25;;;;;;;;;;;;;;;9.64;48.36;95207.75;5053432;28;20017;-67
2022/12/07 11:04:13;;;;;;;;;;;;;;;9.86;47.69;95205.16;5053446;28;20045;-68
2022/12/07 11:06:42;;;;;;;;;;;;;;;10.06;46.70;95198.66;5034814;28;20068;-67
2022/12/07 11:09:10;;;;;;;;;;;;;;;8.09;49.97;95204.47;5051421;28;20474;-67
2022/12/07 11:11:35;;;;;;;;;;;;;;;8.40;49.90;95202.19;5050299;28;20025;-66
2022/12/07 11:14:17;;;;;;;;;;;;;;;8.06;51.30;95205.81;5030959;28;20017;-67
2022/12/07 11:16:42;;;;;;;;;;;;;;;8.17;50.85;95198.50;5033935;28;20022;-69
2022/12/07 11:19:14;;;;;;;;;;;;;;;7.79;51.02;95193.19;5051599;28;20095;-68
2022/12/07 11:21:53;;;;;;;;;;;;;;;8.32;51.30;95193.00;5053019;28;20063;-66
2022/12/07 11:24:20;;;;;;;;;;;;;;;8.23;50.89;95191.28;5049622;28;20013;-67
2022/12/07 11:26:45;;;;;;;;;;;;;;;8.89;50.36;95179.66;5033364;28;20497;-72
2022/12/07 11:29:27;;;;;;;;;;;;;;;8.82;49.58;95189.88;5033347;28;20021;-71
2022/12/07 11:31:59;;;;;;;;;;;;;;;8.92;49.36;95171.13;5050853;28;20683;-68
2022/12/07 11:34:39;;;;;;;;;;;;;;;9.18;48.05;95175.97;5034452;28;20059;-70
2022/12/07 11:37:12;;;;;;;;;;;;;;;7.19;53.07;95190.19;5033699;28;20520;-69
2022/12/07 11:39:42;;;;;;;;;;;;;;;6.58;54.04;95182.03;5032728;28;20071;-69
2022/12/07 11:42:29;;;;;;;;;;;;;;;7.23;52.08;95188.56;5044840;28;20516;-70
2022/12/07 11:45:01;;;;;;;;;;;;;;;7.07;52.90;95184.50;5040591;28;20147;-67
2022/12/07 11:47:29;;;;;;;;;;;;;;;7.36;52.55;95178.34;5032241;28;20469;-67
2022/12/07 11:50:02;;;;;;;;;;;;;;;8.36;50.21;95173.88;5052120;28;20499;-68
2022/12/07 11:52:36;;;;;;;;;;;;;;;8.00;50.52;95169.88;5051106;28;20029;-69
2022/12/07 11:55:05;;;;;;;;;;;;;;;7.73;51.00;95164.44;5050580;28;20066;-69
2022/12/07 11:57:37;;;;;;;;;;;;;;;7.99;50.02;95162.22;5033799;28;20013;-69
2022/12/07 12:00:06;;;;;;;;;;;;;;;7.62;51.17;95161.09;5031986;28;20118;-69
2022/12/07 12:02:35;;;;;;;;;;;;;;;8.38;50.18;95153.19;5030855;28;20776;-68
2022/12/07 12:05:15;;;;;;;;;;;;;;;7.24;51.47;95149.66;5039228;28;20421;-68
2022/12/07 12:07:42;;;;;;;;;;;;;;;8.67;49.70;95145.03;5051672;28;20071;-69
2022/12/07 12:10:20;;;;;;;;;;;;;;;8.47;50.39;95148.81;5024891;28;20013;-70
2022/12/07 12:13:04;;;;;;;;;;;;;;;8.76;49.53;95136.13;5052199;28;20481;-68
2022/12/07 12:15:29;;;;;;;;;;;;;;;9.40;48.12;95136.25;5050406;28;20017;-68
2022/12/07 12:18:00;;;;;;;;;;;;;;;8.67;49.28;95143.16;5048678;28;20021;-68
2022/12/07 12:20:44;;;;;;;;;;;;;;;9.43;48.56;95129.59;5032616;28;20010;-67
2022/12/07 12:23:15;;;;;;;;;;;;;;;9.04;47.82;95128.19;5032036;28;20117;-66
2022/12/07 12:25:43;;;;;;;;;;;;;;;9.23;48.61;95128.91;5023401;28;20061;-67
2022/12/07 12:28:35;;;;;;;;;;;;;;;9.82;47.53;95127.13;5028456;28;20018;-67
2022/12/07 12:31:05;;;;;;;;;;;;;;;10.53;45.60;95123.97;5027311;28;20374;-67
2022/12/07 12:33:30;;;;;;;;;;;;;;;11.04;45.02;95120.00;5030231;28;20014;-66
2022/12/07 12:36:25;;;;;;;;;;;;;;;10.72;44.26;95116.56;5029937;28;20013;-68
2022/12/07 12:39:14;;;;;;;;;;;;;;;10.87;44.19;95115.41;5016229;28;20068;-67
2022/12/07 12:42:05;;;;;;;;;;;;;;;11.23;44.22;95114.47;5029053;28;20053;-68
2022/12/07 12:44:31;;;;;;;;;;;;;;;11.36;44.38;95117.03;5031019;28;20465;-68
2022/12/07 12:47:23;;;;;;;;;;;;;;;11.03;43.50;95121.91;5030151;28;20021;-67
2022/12/07 12:50:07;;;;;;;;;;;;;;;11.02;44.39;95116.88;5007533;28;20014;-68
2022/12/07 12:52:38;;;;;;;;;;;;;;;10.83;43.92;95115.22;5031112;28;20005;-68
2022/12/07 12:55:09;;;;;;;;;;;;;;;10.62;45.03;95112.28;5031321;28;20017;-68
2022/12/07 12:57:35;;;;;;;;;;;;;;;8.30;46.22;95126.25;5031202;28;20009;-68
2022/12/07 13:00:03;;;;;;;;;;;;;;;9.14;46.62;95121.91;5030808;28;20021;-67
2022/12/07 13:02:30;;;;;;;;;;;;;;;10.16;45.79;95109.94;5031371;28;20462;-67
2022/12/07 13:04:58;;;;;;;;;;;;;;;10.46;43.12;95112.97;5030723;28;20108;-67